Terminal Aerodrome Forecast
Issued by NWS

Home | Current Version | Previous Version | Text Only | Print | Product List | Glossary On
Versions: 1 2 3 4 5 6 7 8 9 10 11 12 13 14 15 16 17 18 19
000
FTUS45 KGJT 212005 AAA
TAFRIL
TAF AMD
KRIL 212005Z 2120/2218 28004KT P6SM -SN BKN040 OVC050
      TEMPO 2120/2122 2SM -SN BR BKN020 OVC030
     FM212200 28008KT 4SM -SHSNRA OVC035
     FM220100 29010G18KT P6SM VCSH OVC025
     FM220600 28006KT P6SM VCSH BKN020
     FM220900 26005KT P6SM BKN035=

USA.gov is the U.S. government's official web portal to all federal, state and local government web resources and services.